Tiempo atmosférico en la estación meteorológica de Aliseda, Cáceres (321 m.)



Fecha
DESCASC
Temp. máxima en grados centígrados (hora)
DESCASC
Temp. mínima en grados centígrados (hora)
DESCASC
Temp. media en grados centígrados
DESCASC
Racha de viento máxima en m/sg (hora)
DESCASC
Velocidad máxima media en intervalos de 10 minutos(hora)
DESCASC
Precipitaciones diarias en mm
DESCASC
Precipitaciones de 00:00 a 06:00 en mm
DESCASC
Precipitaciones de 06:00 a 12:00 en mm
DESCASC
Precipitaciones de 12:00 a 18:00 en mm
DESCASC
Precipitaciones de 18:00 a 24:00 en mm
DESCASC
22-04-2019 21.5 (15:30) 6.5 (08:00) 14 11.11 (22:30) 6.39 (18:30) 0 0 0 0 0
21-04-2019 20.6 (16:30) 7.7 (07:20) 14.2 11.39 (02:00) 6.94 (02:00) 0 0 0 0 0
20-04-2019 23.5 (17:10) 10.3 (04:10) 16.9 12.5 (23:00) 8.61 (23:00) 1.8 0 1.8 0 0
19-04-2019 18.4 (16:10) 9.9 (05:30) 14.1 9.44 (16:40) 5.28 (16:40) 5 0 1.6 3.4 0
18-04-2019 18.9 (16:30) 10.7 (00:00) 14.8 9.72 (01:40) 6.11 (02:40) 0.4 0 0 0 0.4
17-04-2019 19.8 (15:40) 10.7 (00:00) 15.2 11.11 (15:30) 6.94 (16:20) 5.2 0 0 4 1.2
16-04-2019 23.3 (18:20) 4.3 (00:00) 13.8 9.72 (16:30) 4.72 (17:00) 0 0 0 0 0
15-04-2019 20.6 (14:10) 12.2 (00:00) 16.4 11.94 (14:20) 7.22 (14:30) 0 0 0 0 0
14-04-2019 24.1 (17:00) 13.7 (00:00) 18.9 5.56 (04:00) 3.61 (03:20) 0 0 0 0 0
13-04-2019 23.6 (16:30) 9.3 (00:00) 16.5 8.61 (18:20) 5 (18:20) 0 0 0 0 0
12-04-2019 21.4 (18:10) 4.8 (00:00) 13.1 6.67 (16:10) 3.06 (02:30) 0 0 0 0 0
11-04-2019 19.9 (16:50) 6.5 (00:00) 13.2 9.17 (14:10) 3.89 (14:00) 0 0 0 0 0
10-04-2019 17.6 (16:40) 7.2 (00:00) 12.4 10.83 (17:00) 6.67 (17:00) 0 0 0 0 0
09-04-2019 16.2 (16:30) 7.6 (00:00) 11.9 15.28 (19:00) 7.78 (16:10) 0.8 0 0.8 0 0
08-04-2019 17 (15:20) 9.6 (00:00) 13.3 15.83 (19:00) 8.89 (19:00) 4.2 4 0 0 0.2
07-04-2019 13.5 (17:30) 8 (00:00) 10.8 10.83 (02:20) 5.83 (01:40) 1.6 0 0 0 1.6
06-04-2019 10.5 (18:40) 6.2 (00:00) 8.3 16.39 (15:50) 7.78 (13:30) 6.2 0 1.6 3.8 0.8
05-04-2019 12.5 (16:10) 3.6 (00:00) 8 14.72 (09:20) 8.06 (17:20) 4.2 0.6 3.2 0.2 0.2
04-04-2019 17 (17:00) 2.2 (00:00) 9.6 9.44 (18:30) 5.56 (19:30) 0.6 0 0 0 0.6
03-04-2019 17.9 (16:50) 6.9 (00:00) 12.4 11.39 (17:50) 5.83 (14:30) 0 0 0 0 0
02-04-2019 21.7 (17:00) 5.8 (00:00) 13.8 9.17 (19:00) 5.83 (20:10) 0 0 0 0 0
01-04-2019 17.6 (16:40) 9.8 (00:00) 13.7 6.94 (21:20) 5 (21:40) 3.8 0 3.6 0.2 0
31-03-2019 20.1 (18:10) 7.6 (00:00) 13.9 8.89 (15:30) 5.83 (15:30) 1.2 0 0 1.2 0
30-03-2019 21.7 (17:00) 4.6 (00:00) 13.2 8.33 (15:00) 4.44 (23:50) 0 0 0 0 0
29-03-2019 20.6 (16:00) 3.4 (00:00) 12 8.89 (04:20) 4.72 (04:40) 0 0 0 0 0
28-03-2019 22.1 (16:30) 2.2 (00:00) 12.2 13.06 (13:20) 5.83 (13:30) 0 0 0 0 0
27-03-2019 21.1 (16:20) 7.5 (00:00) 14.3 9.72 (13:00) 6.11 (13:00) 0 0 0 0 0

Gráficas

Temp. máximas Temp. mínimas Temp. medias Precipitaciones Rachas de viento máximas Velocidades máximas media en intervalos de 10 minutos

Datos horarios

Fecha y hora oficial Temperatura (ºC) Velocidad del viento (km/h) Dirección del viento Racha (km/h) Dirección de racha Precipitación (mm) Presión (hPa) Tendencia (hPa) Humedad (%)
2019-04-25 23:00:00 10.6 12 Sudoeste 28 Oeste 0 -- -- 69
2019-04-25 22:00:00 11.1 9 Sudoeste 28 Sudoeste 0 -- -- 71
2019-04-25 21:00:00 12.5 14 Oeste 36 Oeste 0 -- -- 66
2019-04-25 20:00:00 13.8 19 Oeste 48 Oeste 0 -- -- 56
2019-04-25 19:00:00 14.6 28 Oeste 47 Oeste 0 -- -- 50
2019-04-25 18:00:00 14.5 23 Noroeste 38 Oeste 0 -- -- 58
2019-04-25 17:00:00 15.6 28 Oeste 52 Oeste 0 -- -- 60
2019-04-25 16:00:00 13 18 Oeste 40 Oeste 0.2 -- -- 67
2019-04-25 15:00:00 11.3 27 Oeste 46 Oeste 0 -- -- 74
2019-04-25 14:00:00 10.5 19 Sudoeste 53 Oeste 0.2 -- -- 72
2019-04-25 13:00:00 12.1 21 Sudoeste 49 Sudoeste 0 -- -- 67
2019-04-25 12:00:00 12 17 Sudoeste 43 Sudoeste 0 -- -- 66
2019-04-25 11:00:00 11.7 22 Oeste 39 Oeste 0 -- -- 69
2019-04-25 10:00:00 10.5 18 Sudoeste 33 Sudoeste 0 -- -- 81
2019-04-25 09:00:00 9.6 16 Sudoeste 30 Sudoeste 0 -- -- 86
2019-04-25 08:00:00 8.6 13 Sudoeste 28 Sudoeste 0.2 -- -- 88
2019-04-25 07:00:00 9.1 15 Sudoeste 30 Sudoeste 0.4 -- -- 90
2019-04-25 06:00:00 9.2 16 Sudoeste 31 Sudoeste 0.6 -- -- 89
2019-04-25 05:00:00 9.5 18 Sudoeste 30 Sudoeste 0 -- -- 85
2019-04-25 04:00:00 9.3 18 Sudoeste 27 Sudoeste 0 -- -- 84
2019-04-25 03:00:00 9.6 13 Sudoeste 30 Sudoeste 0.4 -- -- 89
2019-04-25 02:00:00 10 16 Sudoeste 32 Sudoeste 0 -- -- 88
2019-04-25 01:00:00 10.2 17 Sudoeste 27 Sudoeste 0 -- -- 91
2019-04-25 00:00:00 11 14 Sudoeste 27 Sudoeste 0 -- -- 88
2019-04-24 23:00:00 11.2 10 Sudoeste 40 Sudoeste 1 -- -- 90
2019-04-24 22:00:00 12.1 21 Sudoeste 37 Sudoeste 2.2 -- -- 91
2019-04-24 21:00:00 12.6 15 Sudoeste 37 Sudoeste 1.2 -- -- 91
2019-04-24 20:00:00 12 21 Sudoeste 52 Sudoeste 0.4 -- -- 91
2019-04-24 19:00:00 14.1 26 Sudoeste 51 Oeste 0 -- -- 75
2019-04-24 18:00:00 14 29 Sudoeste 56 Oeste 0 -- -- 81
2019-04-24 17:00:00 13 14 Oeste 56 Sudoeste 1.8 -- -- 93
2019-04-24 16:00:00 15.5 33 Sudoeste 61 Sudoeste 0 -- -- 74
2019-04-24 15:00:00 15.2 23 Sudoeste 39 Sur 0.2 -- -- 82
2019-04-24 14:00:00 14.9 26 Sudoeste 47 Sudoeste 0 -- -- 78
2019-04-24 13:00:00 13.1 22 Sudoeste 46 Sudoeste 3.8 -- -- 88
2019-04-24 12:00:00 12.1 20 Sudoeste 49 Sudoeste 2 -- -- 93
2019-04-24 11:00:00 11 18 Sudoeste 46 Sur 2.2 -- -- 94
2019-04-24 10:00:00 10.4 17 Sudoeste 43 Sudoeste 2 -- -- 94
2019-04-24 09:00:00 9.7 16 Sur 54 Sur 0.8 -- -- 93
2019-04-24 08:00:00 9.1 17 Sur 55 Sur 1.8 -- -- 94
2019-04-24 07:00:00 8.8 25 Sur 52 Sur 2.2 -- -- 92
2019-04-24 06:00:00 8.3 13 Sur 39 Sur 2 -- -- 91
2019-04-24 05:00:00 7.8 13 Sur 38 Sur 0.6 -- -- 91
2019-04-24 04:00:00 7.5 10 Sur 27 Sudeste 0 -- -- 88
2019-04-24 03:00:00 7.5 17 Sur 30 Sur 0 -- -- 86
2019-04-24 02:00:00 7.2 17 Sur 30 Sur 0 -- -- 87
2019-04-24 01:00:00 6.9 19 Sur 31 Sur 0 -- -- 87
2019-04-24 00:00:00 6.7 9 Sur 25 Sur 0 -- -- 84
2019-04-23 23:00:00 6.7 13 Sur 26 Sur 0 -- -- 84
2019-04-23 22:00:00 7.7 15 Sudoeste 36 Sudoeste 0.2 -- -- 72
2019-04-23 21:00:00 9.3 20 Oeste 32 Oeste 0 -- -- 65
2019-04-23 20:00:00 9.8 17 Sudoeste 37 Oeste 0 -- -- 65
2019-04-23 19:00:00 10.3 27 Oeste 45 Oeste 0 -- -- 63
2019-04-23 18:00:00 10 18 Sudoeste 46 Oeste 0 -- -- 64
2019-04-23 17:00:00 12.6 25 Oeste 44 Oeste 0 -- -- 52
2019-04-23 16:00:00 12.9 26 Oeste 42 Oeste 0 -- -- 55
2019-04-23 15:00:00 10.9 22 Oeste 41 Oeste 0 -- -- 70
2019-04-23 14:00:00 9.1 22 Oeste 51 Oeste 0 -- -- 75
2019-04-23 13:00:00 11.1 18 Oeste 36 Sudoeste 0 -- -- 70
2019-04-23 12:00:00 10.1 11 Sudoeste 31 Oeste 0 -- -- 79
2019-04-23 11:00:00 8.2 14 Sudoeste 31 Sudoeste 0 -- -- 86
2019-04-23 10:00:00 8.3 13 Sudoeste 24 Sudoeste 0 -- -- 87
2019-04-23 09:00:00 7.8 11 Sudoeste 26 Sudoeste 0 -- -- 89
2019-04-23 08:00:00 6.8 9 Sudoeste 21 Sudoeste 0 -- -- 87
2019-04-23 07:00:00 7.3 10 Sudoeste 21 Sudoeste 0 -- -- 86
2019-04-23 06:00:00 8.1 9 Oeste 26 Oeste 0.2 -- -- 88
2019-04-23 05:00:00 8.7 10 Oeste 24 Noroeste 0 -- -- 91
2019-04-23 04:00:00 9.1 10 Sudoeste 19 Oeste 1.8 -- -- 92
2019-04-23 03:00:00 9 6 Sudoeste 29 Oeste 2.8 -- -- 92
2019-04-23 02:00:00 9.8 23 Oeste 48 Oeste 2.4 -- -- 87
2019-04-23 01:00:00 12.6 10 Sudoeste 32 Sudoeste 0 -- -- 79
2019-04-23 00:00:00 13.4 15 Sudoeste 37 Sudoeste 0 -- -- 77
2019-04-22 23:00:00 15.1 17 Sudoeste 40 Sudoeste 0 -- -- 71
2019-04-22 22:00:00 16.8 15 Sudoeste 35 Sudoeste 0 -- -- 61
2019-04-22 21:00:00 17.3 14 Sudoeste 30 Oeste 0 -- -- 54
2019-04-22 20:00:00 18 19 Sudoeste 36 Oeste 0 -- -- 54
2019-04-22 19:00:00 19.3 18 Sudoeste 34 Oeste 0 -- -- 46
2019-04-22 18:00:00 20.7 18 Oeste 38 Oeste 0 -- -- 40
2019-04-22 17:00:00 19.7 17 Oeste 32 Sudoeste 0 -- -- 48
2019-04-22 16:00:00 19.9 12 Sudoeste 24 Oeste 0 -- -- 48
2019-04-22 15:00:00 20.6 13 Sudoeste 30 Sudoeste 0 -- -- 47
2019-04-22 14:00:00 20.9 9 Sudoeste 27 Sur 0 -- -- 47
2019-04-22 13:00:00 19.7 5 Nordeste 19 Sudoeste 0 -- -- 49
2019-04-22 12:00:00 18.4 4 Norte 12 Nordeste 0 -- -- 57
2019-04-22 11:00:00 16.1 4 Nordeste 8 Nordeste 0 -- -- 64
2019-04-22 10:00:00 12.9 0 Calma 4 Nordeste 0 -- -- 76
2019-04-22 09:00:00 8.9 0 Calma 4 Noroeste 0 -- -- 88
2019-04-22 08:00:00 6.5 3 Oeste 6 Oeste 0 -- -- 90
2019-04-22 07:00:00 7.6 4 Oeste 7 Sudeste 0 -- -- 87
2019-04-22 06:00:00 8.3 0 Calma 4 Este 0 -- -- 84
2019-04-22 05:00:00 9.4 3 Sudoeste 11 Oeste 0 -- -- 81
2019-04-22 04:00:00 9.8 5 Sur 9 Sur 0 -- -- 79
2019-04-22 03:00:00 11.7 7 Este 9 Este 0 -- -- 71
2019-04-22 02:00:00 12.3 5 Este 8 Este 0 -- -- 69
2019-04-22 01:00:00 13.3 0 Calma 10 Sudeste 0 -- -- 70
2019-04-22 00:00:00 13.7 8 Sudeste 12 Sudeste 0 -- -- 62
2019-04-21 23:00:00 13.9 8 Sudeste 10 Sudeste 0 -- -- 62
2019-04-21 22:00:00 16 7 Este 12 Este 0 -- -- 56
2019-04-21 21:00:00 17.5 9 Este 27 Este 0 -- -- 51
2019-04-21 20:00:00 18.9 10 Nordeste 18 Este 0 -- -- 46
2019-04-21 19:00:00 20.2 9 Nordeste 23 Este 0 -- -- 43
2019-04-21 18:00:00 19.9 8 Nordeste 23 Nordeste 0 -- -- 44
2019-04-21 17:00:00 19.2 9 Nordeste 22 Nordeste 0 -- -- 45
2019-04-21 16:00:00 19.8 8 Nordeste 26 Este 0 -- -- 43
2019-04-21 15:00:00 18.8 9 Nordeste 24 Nordeste 0 -- -- 44
2019-04-21 14:00:00 18.9 13 Norte 30 Nordeste 0 -- -- 45
2019-04-21 13:00:00 17.7 11 Nordeste 24 Nordeste 0 -- -- 52
2019-04-21 12:00:00 17.2 8 Nordeste 21 Norte 0 -- -- 54
2019-04-21 11:00:00 14.7 7 Nordeste 14 Este 0 -- -- 63
2019-04-21 10:00:00 12.9 5 Nordeste 12 Este 0 -- -- 73
2019-04-21 09:00:00 9.4 0 Calma 3 Noroeste 0 -- -- 85
2019-04-21 08:00:00 9.2 2 Este 5 Este 0 -- -- 85
2019-04-21 07:00:00 8.7 0 Calma 12 Este 0 -- -- 81
2019-04-21 06:00:00 8.7 0 Calma 9 Sudeste 0 -- -- 84
2019-04-21 05:00:00 8.7 2 Sudeste 4 Sudeste 0 -- -- 87
2019-04-21 04:00:00 8.6 0 Calma 7 Sudeste 0 -- -- 86
2019-04-21 03:00:00 10.5 5 Sudeste 39 Este 0 -- -- 78
2019-04-21 02:00:00 14.1 25 Este 41 Este 0 -- -- 59
2019-04-21 01:00:00 13.8 9 Sudeste 33 Sudeste 0 -- -- 64
2019-04-21 00:00:00 14.6 18 Sudeste 38 Sudeste 0 -- -- 62
2019-04-20 23:00:00 15.6 31 Sudeste 45 Sudeste 0 -- -- 57
2019-04-20 22:00:00 16.2 30 Sudeste 43 Sudeste 0 -- -- 61
2019-04-20 21:00:00 19.6 15 Sur 23 Sur 0 -- -- 53
2019-04-20 20:00:00 22 12 Este 27 Este 0 -- -- 41
2019-04-20 19:00:00 22.9 19 Este 36 Este 0 -- -- 38
2019-04-20 18:00:00 23.5 12 Nordeste 34 Este 0 -- -- 39
2019-04-20 17:00:00 23.4 13 Nordeste 43 Nordeste 0 -- -- 39
2019-04-20 16:00:00 22.9 18 Nordeste 37 Este 0 -- -- 41
2019-04-20 15:00:00 21.8 19 Este 40 Nordeste 0 -- -- 42
2019-04-20 14:00:00 21.1 13 Nordeste 41 Nordeste 0 -- -- 51
2019-04-20 13:00:00 19.2 16 Nordeste 34 Este 0 -- -- 54
2019-04-20 12:00:00 17.6 14 Nordeste 27 Nordeste 0 -- -- 64
2019-04-20 11:00:00 14.5 4 Noroeste 11 Oeste 0 -- -- 83
2019-04-20 10:00:00 12 3 Oeste 6 Oeste 0 -- -- 91
2019-04-20 09:00:00 10.6 4 Sudeste 6 Este 0 -- -- 93
2019-04-20 08:00:00 10.3 3 Nordeste 9 Nordeste 0.6 -- -- 95
2019-04-20 07:00:00 10.3 0 Calma 13 Este 1.2 -- -- 93
2019-04-20 06:00:00 10.6 5 Este 10 Este 0 -- -- 88
2019-04-20 05:00:00 10.5 6 Este 18 Este 0 -- -- 89
2019-04-20 04:00:00 10.4 5 Sudeste 10 Este 0 -- -- 91
2019-04-20 03:00:00 10.8 7 Este 12 Este 0 -- -- 89
2019-04-20 02:00:00 11.3 4 Este 9 Nordeste 0 -- -- 91
2019-04-20 01:00:00 11.9 2 Nordeste 17 Este 0 -- -- 85
2019-04-20 00:00:00 12.3 9 Este 21 Este 0 -- -- 79
2019-04-19 23:00:00 13 8 Este 22 Este 0 -- -- 74
2019-04-19 22:00:00 13.8 7 Este 18 Este 0 -- -- 71
2019-04-19 21:00:00 14.5 8 Este 26 Este 0 -- -- 67
2019-04-19 20:00:00 15.7 8 Nordeste 26 Nordeste 0 -- -- 63
2019-04-19 19:00:00 16.6 14 Nordeste 28 Nordeste 0 -- -- 60
2019-04-19 18:00:00 16.9 13 Nordeste 24 Nordeste 0 -- -- 64
2019-04-19 17:00:00 13 13 Sudeste 34 Este 1.2 -- -- 83
2019-04-19 16:00:00 18.2 5 Oeste 10 Sudeste 0 -- -- 58
2019-04-19 15:00:00 15.5 4 Oeste 14 Oeste 0 -- -- 70
2019-04-19 14:00:00 14.5 3 Noroeste 12 Sudoeste 2.2 -- -- 81
2019-04-19 13:00:00 13.3 6 Oeste 8 Oeste 0 -- -- 85
2019-04-19 12:00:00 12.6 2 Norte 6 Este 0.8 -- -- 85
2019-04-19 11:00:00 11.7 0 Calma 5 Noroeste 0.2 -- -- 87
2019-04-19 10:00:00 11.1 2 Noroeste 4 Oeste 0 -- -- 89
2019-04-19 09:00:00 10.2 0 Calma 5 Sudoeste 0.2 -- -- 92
2019-04-19 08:00:00 10.1 0 Calma 9 Sudoeste 0.4 -- -- 91
2019-04-19 07:00:00 10.1 8 Sudoeste 13 Sudoeste 0 -- -- 89
2019-04-19 06:00:00 9.9 6 Sudoeste 15 Oeste 0 -- -- 90
2019-04-19 05:00:00 10.3 9 Sudoeste 16 Sudoeste 0 -- -- 88
2019-04-19 04:00:00 10.6 8 Sudoeste 15 Sudoeste 0 -- -- 87
2019-04-19 03:00:00 10.8 8 Sudoeste 13 Sudoeste 0 -- -- 82
2019-04-19 02:00:00 11.6 11 Sudoeste 15 Sudoeste 0 -- -- 78
2019-04-19 01:00:00 11.7 10 Sudoeste 14 Sudoeste 0 -- -- 77
2019-04-19 00:00:00 11.6 8 Sudoeste 17 Sudoeste 0 -- -- 78
2019-04-18 23:00:00 11.9 13 Sudoeste 19 Sudoeste 0 -- -- 76
2019-04-18 22:00:00 11.9 11 Sudoeste 17 Sudoeste 0 -- -- 75
2019-04-18 21:00:00 11.9 7 Sudoeste 25 Noroeste 0.4 -- -- 78
2019-04-18 20:00:00 15.5 5 Norte 16 Norte 0 -- -- 61
2019-04-18 19:00:00 16.4 6 Norte 31 Nordeste 0 -- -- 58
2019-04-18 18:00:00 18.2 7 Noroeste 17 Norte 0 -- -- 48
2019-04-18 17:00:00 18.7 3 Oeste 19 Oeste 0 -- -- 40
2019-04-18 16:00:00 18 8 Oeste 25 Oeste 0 -- -- 50
2019-04-18 15:00:00 17.7 16 Oeste 28 Oeste 0 -- -- 53
2019-04-18 14:00:00 16.1 7 Oeste 19 Oeste 0 -- -- 58
2019-04-18 13:00:00 15.9 12 Sudoeste 19 Oeste 0 -- -- 61
2019-04-18 12:00:00 16 6 Sur 16 Sudoeste 0 -- -- 64
2019-04-18 11:00:00 14.5 6 Sur 16 Sur 0 -- -- 70
2019-04-18 10:00:00 12.5 6 Sudoeste 15 Sur 0 -- -- 81
2019-04-18 09:00:00 11.5 4 Sudeste 17 Sur 0 -- -- 86
2019-04-18 08:00:00 11.2 4 Sudeste 12 Sudeste 0 -- -- 87
2019-04-18 07:00:00 11.2 7 Sur 25 Sur 0 -- -- 87
2019-04-18 06:00:00 11.1 13 Sudeste 26 Sur 0 -- -- 88
2019-04-18 05:00:00 10.8 10 Sur 27 Este 0 -- -- 89
2019-04-18 04:00:00 10.7 7 Sur 35 Sur 0 -- -- 89
2019-04-18 03:00:00 11 18 Sur 34 Sudeste 0 -- -- 88
2019-04-18 02:00:00 11.1 20 Sur 35 Sur 0 -- -- 89
2019-04-18 01:00:00 11.1 14 Sur 32 Sur 0 -- -- 89
2019-04-18 00:00:00 11.1 16 Sur 29 Sur 0 -- -- 89
2019-04-17 23:00:00 11.3 16 Sur 30 Sur 0.2 -- -- 89
2019-04-17 22:00:00 11.7 9 Sudoeste 22 Sudoeste 0 -- -- 89
2019-04-17 21:00:00 12.1 4 Sudoeste 25 Sur 0.4 -- -- 91
2019-04-17 20:00:00 12.4 4 Este 31 Sudeste 0 -- -- 85
2019-04-17 19:00:00 12.6 17 Sur 34 Sur 0.6 -- -- 84
2019-04-17 18:00:00 12.8 7 Sudoeste 24 Sudoeste 2.4 -- -- 89
2019-04-17 17:00:00 13.2 8 Sudoeste 37 Oeste 1.6 -- -- 86
2019-04-17 16:00:00 18 20 Sudoeste 40 Sur 0 -- -- 65
2019-04-17 15:00:00 19.4 9 Nordeste 39 Sudeste 0 -- -- 52
2019-04-17 14:00:00 18 10 Nordeste 35 Sudeste 0 -- -- 56
2019-04-17 13:00:00 17.8 11 Este 38 Sudeste 0 -- -- 57
2019-04-17 12:00:00 16 12 Este 32 Este 0 -- -- 59
2019-04-17 11:00:00 14.1 10 Este 24 Este 0 -- -- 64
2019-04-17 10:00:00 13.4 12 Este 20 Este 0 -- -- 68
2019-04-17 09:00:00 11.4 2 Nordeste 6 Este 0 -- -- 74
2019-04-17 08:00:00 11.8 2 Norte 15 Sudeste 0 -- -- 71
2019-04-17 07:00:00 11.8 4 Sudeste 19 Sudoeste 0 -- -- 70
2019-04-17 06:00:00 12.3 6 Sudoeste 31 Sudoeste 0 -- -- 64
2019-04-17 05:00:00 13.1 6 Sur 23 Sudeste 0 -- -- 58
2019-04-17 04:00:00 13.9 3 Este 25 Sudoeste 0 -- -- 56
2019-04-17 03:00:00 15 11 Sur 25 Sudoeste 0 -- -- 52
2019-04-17 02:00:00 15.7 11 Sur 30 Sur 0 -- -- 46
2019-04-17 01:00:00 17.1 10 Sur 25 Sur 0 -- -- 39
2019-04-17 00:00:00 16.3 8 Sur 14 Sudeste 0 -- -- 45
2019-04-16 23:00:00 16.7 7 Sudoeste 19 Sur 0 -- -- 49
2019-04-16 22:00:00 19.6 8 Sur 16 Sur 0 -- -- 39
2019-04-16 21:00:00 21.6 13 Este 24 Este 0 -- -- 36
2019-04-16 20:00:00 22.8 12 Este 33 Este 0 -- -- 32
2019-04-16 19:00:00 23.3 9 Este 30 Este 0 -- -- 33
2019-04-16 18:00:00 23 11 Este 28 Este 0 -- -- 36
2019-04-16 17:00:00 22.1 17 Este 35 Este 0 -- -- 37
2019-04-16 16:00:00 22.1 14 Sudeste 32 Este 0 -- -- 35
2019-04-16 15:00:00 21 12 Sudeste 25 Sudeste 0 -- -- 36
2019-04-16 14:00:00 20 9 Este 26 Este 0 -- -- 43
2019-04-16 13:00:00 18.5 10 Sudoeste 19 Este 0 -- -- 52
2019-04-16 12:00:00 17.1 6 Sudoeste 18 Sur 0 -- -- 57
2019-04-16 11:00:00 13.9 4 Nordeste 10 Nordeste 0 -- -- 72
2019-04-16 10:00:00 9.6 0 Calma 4 Nordeste 0 -- -- 84
2019-04-16 09:00:00 6.4 0 Calma 4 Noroeste 0 -- -- 90
2019-04-16 08:00:00 4.3 0 Calma 3 Noroeste 0 -- -- 94
2019-04-16 07:00:00 5.4 0 Calma 6 Sur 0 -- -- 92
2019-04-16 06:00:00 6.7 2 Sur 6 Sudoeste 0 -- -- 90
2019-04-16 05:00:00 9.2 7 Sudoeste 15 Sudoeste 0 -- -- 86
2019-04-16 04:00:00 9.7 9 Sudoeste 15 Sudoeste 0 -- -- 85
2019-04-16 03:00:00 9.6 6 Sudoeste 10 Sudoeste 0 -- -- 85
2019-04-16 02:00:00 10.9 8 Sudoeste 15 Sudoeste 0 -- -- 80
2019-04-16 01:00:00 11.7 11 Sudoeste 17 Sudoeste 0 -- -- 77
2019-04-16 00:00:00 12.7 9 Sudoeste 17 Oeste 0 -- -- 72
2019-04-15 23:00:00 13.6 10 Sudoeste 19 Oeste 0 -- -- 68
2019-04-15 22:00:00 14.8 10 Sudoeste 22 Oeste 0 -- -- 61
2019-04-15 21:00:00 16.5 13 Oeste 32 Oeste 0 -- -- 51
2019-04-15 20:00:00 18.6 18 Oeste 38 Oeste 0 -- -- 48
2019-04-15 19:00:00 18.9 15 Oeste 30 Oeste 0 -- -- 50
2019-04-15 18:00:00 19 17 Oeste 31 Oeste 0 -- -- 52
2019-04-15 17:00:00 17.1 17 Oeste 28 Oeste 0 -- -- 64
2019-04-15 16:00:00 14.3 9 Oeste 30 Oeste 0 -- -- 79
2019-04-15 15:00:00 14.2 18 Oeste 43 Oeste 0 -- -- 78
2019-04-15 14:00:00 20.2 19 Oeste 32 Oeste 0 -- -- 50
2019-04-15 13:00:00 19.2 17 Oeste 27 Oeste 0 -- -- 45
2019-04-15 12:00:00 19.3 9 Noroeste 25 Oeste 0 -- -- 57
2019-04-15 11:00:00 17.8 10 Sudoeste 19 Sur 0 -- -- 72
2019-04-15 10:00:00 15.3 11 Sudoeste 26 Sur 0 -- -- 84
2019-04-15 09:00:00 15 13 Sur 23 Sur 0 -- -- 85
2019-04-15 08:00:00 12.4 4 Noroeste 14 Sudeste 0 -- -- 91
2019-04-15 07:00:00 13.1 3 Sur 8 Sur 0 -- -- 88
2019-04-15 06:00:00 13.7 4 Oeste 10 Sudeste 0 -- -- 86
2019-04-15 05:00:00 14.5 5 Sur 12 Sur 0 -- -- 85
2019-04-15 04:00:00 13.4 0 Calma 8 Oeste 0 -- -- 88
2019-04-15 03:00:00 14.3 2 Sur 8 Sur 0 -- -- 86
2019-04-15 02:00:00 16.2 5 Sudeste 9 Sudeste 0 -- -- 77
2019-04-15 01:00:00 16.1 0 Calma 8 Sur 0 -- -- 77
2019-04-15 00:00:00 16.3 0 Calma 7 Sur 0 -- -- 77
2019-04-14 23:00:00 17.1 6 Sur 9 Sur 0 -- -- 73
2019-04-14 22:00:00 16.9 6 Sur 9 Sur 0 -- -- 73
2019-04-14 21:00:00 19.4 6 Sudoeste 13 Oeste 0 -- -- 66
2019-04-14 20:00:00 22.4 8 Sudoeste 16 Sudoeste 0 -- -- 55
2019-04-14 19:00:00 22.6 9 Sudoeste 15 Oeste 0 -- -- 54
2019-04-14 18:00:00 23 10 Oeste 19 Oeste 0 -- -- 55
2019-04-14 17:00:00 24.1 7 Sur 19 Oeste 0 -- -- 51
2019-04-14 16:00:00 22.7 8 Noroeste 16 Oeste 0 -- -- 55
2019-04-14 15:00:00 21.9 6 Oeste 16 Oeste 0 -- -- 59
2019-04-14 14:00:00 20.3 6 Sudoeste 12 Oeste 0 -- -- 64
2019-04-14 13:00:00 19.7 7 Sudoeste 13 Sudoeste 0 -- -- 66
2019-04-14 12:00:00 19.4 7 Noroeste 13 Oeste 0 -- -- 68
2019-04-14 11:00:00 16.6 5 Oeste 14 Sur 0 -- -- 79
2019-04-14 10:00:00 15.1 5 Sudoeste 9 Sur 0 -- -- 86
2019-04-14 09:00:00 14.4 5 Sudoeste 12 Sudoeste 0 -- -- 89
2019-04-14 08:00:00 14 7 Sudoeste 14 Sudoeste 0 -- -- 91
2019-04-14 07:00:00 13.9 9 Sudoeste 15 Sudoeste 0 -- -- 90
2019-04-14 06:00:00 14.3 6 Sudoeste 10 Oeste 0 -- -- 88
2019-04-14 05:00:00 14.4 8 Sudoeste 19 Oeste 0 -- -- 89
2019-04-14 04:00:00 13.9 11 Oeste 20 Oeste 0 -- -- 90
2019-04-14 03:00:00 13.9 9 Sudoeste 17 Sudoeste 0 -- -- 88
2019-04-14 02:00:00 13.9 9 Sudoeste 14 Sudoeste 0 -- -- 88
2019-04-14 01:00:00 14.6 9 Oeste 15 Oeste 0 -- -- 85
2019-04-14 00:00:00 15.2 7 Oeste 15 Oeste 0 -- -- 81
2019-04-13 23:00:00 16.3 10 Oeste 22 Oeste 0 -- -- 75
2019-04-13 22:00:00 17.3 7 Oeste 19 Oeste 0 -- -- 67
2019-04-13 21:00:00 18.8 13 Oeste 23 Oeste 0 -- -- 58
2019-04-13 20:00:00 20 12 Noroeste 25 Noroeste 0 -- -- 51
2019-04-13 19:00:00 21.1 11 Oeste 31 Oeste 0 -- -- 41
2019-04-13 18:00:00 21.7 17 Noroeste 29 Noroeste 0 -- -- 38
2019-04-13 17:00:00 22.2 14 Oeste 27 Sur 0 -- -- 36
2019-04-13 16:00:00 22.8 7 Sudoeste 24 Oeste 0 -- -- 36
2019-04-13 15:00:00 22 7 Sudoeste 22 Oeste 0 -- -- 40
2019-04-13 14:00:00 21.9 6 Sur 17 Sur 0 -- -- 38
2019-04-13 13:00:00 20.5 8 Sudoeste 16 Sur 0 -- -- 42
2019-04-13 12:00:00 18.7 6 Sur 17 Sudoeste 0 -- -- 46
2019-04-13 11:00:00 16.9 4 Norte 9 Sudeste 0 -- -- 61
2019-04-13 10:00:00 12.3 3 Nordeste 5 Nordeste 0 -- -- 78
2019-04-13 09:00:00 9.6 0 Calma 5 Noroeste 0 -- -- 82
2019-04-13 08:00:00 10.8 5 Sudoeste 9 Sudoeste 0 -- -- 75
2019-04-13 07:00:00 11.6 4 Sudoeste 9 Oeste 0 -- -- 72
2019-04-13 06:00:00 11.6 3 Oeste 12 Sudoeste 0 -- -- 73
2019-04-13 05:00:00 11.8 3 Sudoeste 10 Sudoeste 0 -- -- 72
2019-04-13 04:00:00 12.5 6 Sudoeste 16 Oeste 0 -- -- 69
2019-04-13 03:00:00 12.9 9 Sudoeste 19 Sudoeste 0 -- -- 68
2019-04-13 02:00:00 13.4 12 Sudoeste 18 Sudoeste 0 -- -- 66
2019-04-13 01:00:00 14 12 Sudoeste 20 Oeste 0 -- -- 62
2019-04-13 00:00:00 14.9 9 Sudoeste 18 Oeste 0 -- -- 52
2019-04-12 23:00:00 13 8 Sudoeste 12 Sudoeste 0 -- -- 47
2019-04-12 22:00:00 12.9 8 Sudoeste 11 Sudoeste 0 -- -- 48
2019-04-12 21:00:00 15.2 6 Oeste 8 Sudoeste 0 -- -- 46
2019-04-12 20:00:00 20.3 4 Noroeste 12 Nordeste 0 -- -- 31
2019-04-12 19:00:00 21 9 Noroeste 15 Noroeste 0 -- -- 29
2019-04-12 18:00:00 21.2 8 Oeste 19 Noroeste 0 -- -- 29
2019-04-12 17:00:00 21.1 8 Noroeste 24 Oeste 0 -- -- 30
2019-04-12 16:00:00 20.3 10 Noroeste 21 Noroeste 0 -- -- 31
2019-04-12 15:00:00 19.9 5 Noroeste 21 Norte 0 -- -- 33
2019-04-12 14:00:00 19 7 Norte 18 Nordeste 0 -- -- 34
2019-04-12 13:00:00 18 4 Nordeste 15 Nordeste 0 -- -- 37
2019-04-12 12:00:00 16.7 6 Este 12 Este 0 -- -- 39
2019-04-12 11:00:00 14.2 6 Nordeste 10 Nordeste 0 -- -- 52
2019-04-12 10:00:00 10.3 2 Noroeste 7 Oeste 0 -- -- 67
2019-04-12 09:00:00 7.6 0 Calma 6 Sudoeste 0 -- -- 77
2019-04-12 08:00:00 4.8 3 Sudoeste 8 Oeste 0 -- -- 82
2019-04-12 07:00:00 5.3 4 Sudoeste 9 Sudoeste 0 -- -- 80
2019-04-12 06:00:00 7.8 7 Sudoeste 14 Sudoeste 0 -- -- 73
2019-04-12 05:00:00 8.6 7 Sudoeste 13 Oeste 0 -- -- 70
2019-04-12 04:00:00 9.3 5 Sudoeste 17 Sudoeste 0 -- -- 67
2019-04-12 03:00:00 9.6 8 Sudoeste 17 Sudoeste 0 -- -- 63
2019-04-12 02:00:00 8.9 6 Oeste 11 Sudoeste 0 -- -- 64
2019-04-12 01:00:00 11.3 3 Este 12 Este 0 -- -- 53
2019-04-12 00:00:00 11.7 7 Este 14 Este 0 -- -- 53
2019-04-11 23:00:00 12.2 6 Este 9 Este 0 -- -- 51
2019-04-11 22:00:00 11.3 4 Este 6 Sudeste 0 -- -- 57
2019-04-11 21:00:00 12.6 3 Sur 13 Norte 0 -- -- 56
2019-04-11 20:00:00 18 10 Noroeste 21 Noroeste 0 -- -- 35
2019-04-11 19:00:00 19 9 Noroeste 23 Noroeste 0 -- -- 36
2019-04-11 18:00:00 19.2 10 Noroeste 19 Oeste 0 -- -- 36
2019-04-11 17:00:00 19.6 12 Noroeste 27 Noroeste 0 -- -- 34
2019-04-11 16:00:00 18.2 9 Norte 24 Noroeste 0 -- -- 39
2019-04-11 15:00:00 18.1 10 Noroeste 33 Oeste 0 -- -- 38
2019-04-11 14:00:00 17.7 14 Oeste 22 Noroeste 0 -- -- 44
2019-04-11 13:00:00 16.4 8 Noroeste 17 Noroeste 0 -- -- 53
2019-04-11 12:00:00 14 7 Noroeste 15 Noroeste 0 -- -- 62
2019-04-11 11:00:00 12.4 6 Noroeste 12 Noroeste 0 -- -- 68
2019-04-11 10:00:00 9.9 7 Oeste 12 Oeste 0 -- -- 77
2019-04-11 09:00:00 8.6 8 Sudoeste 13 Sudoeste 0 -- -- 81
2019-04-11 08:00:00 6.5 7 Sudoeste 12 Sudoeste 0 -- -- 88
2019-04-11 07:00:00 7.1 5 Oeste 15 Oeste 0 -- -- 85
2019-04-11 06:00:00 7.2 5 Sudoeste 12 Sudoeste 0 -- -- 86
2019-04-11 05:00:00 8 8 Oeste 17 Sudoeste 0 -- -- 83
2019-04-11 04:00:00 8.3 12 Oeste 20 Sudoeste 0 -- -- 82
2019-04-11 03:00:00 8 8 Sudoeste 14 Sudoeste 0 -- -- 83
2019-04-11 02:00:00 8.5 8 Oeste 14 Oeste 0 -- -- 80
2019-04-11 01:00:00 8.6 5 Oeste 13 Oeste 0 -- -- 76
2019-04-11 00:00:00 8.8 2 Oeste 11 Norte 0 -- -- 74
2019-04-10 23:00:00 11.4 4 Noroeste 24 Oeste 0 -- -- 69
2019-04-10 22:00:00 12.9 13 Oeste 25 Oeste 0 -- -- 61
2019-04-10 21:00:00 14.4 14 Noroeste 32 Noroeste 0 -- -- 56
2019-04-10 20:00:00 16 17 Oeste 37 Oeste 0 -- -- 51
2019-04-10 19:00:00 17 21 Noroeste 39 Oeste 0 -- -- 49
2019-04-10 18:00:00 17.3 23 Noroeste 39 Oeste 0 -- -- 48
2019-04-10 17:00:00 17.2 24 Oeste 39 Oeste 0 -- -- 49
2019-04-10 16:00:00 16.9 20 Noroeste 36 Noroeste 0 -- -- 49
2019-04-10 15:00:00 15.6 13 Noroeste 34 Noroeste 0 -- -- 58
2019-04-10 14:00:00 14.6 16 Oeste 28 Oeste 0 -- -- 56
2019-04-10 13:00:00 14.8 15 Oeste 37 Oeste 0 -- -- 57
2019-04-10 12:00:00 12.8 17 Oeste 27 Oeste 0 -- -- 64
2019-04-10 11:00:00 11.7 14 Oeste 25 Noroeste 0 -- -- 72
2019-04-10 10:00:00 9.2 10 Oeste 17 Oeste 0 -- -- 86
2019-04-10 09:00:00 7.7 4 Oeste 17 Sudoeste 0 -- -- 91
2019-04-10 08:00:00 7.2 10 Oeste 17 Oeste 0 -- -- 91
2019-04-10 07:00:00 7.6 10 Sudoeste 19 Sudoeste 0 -- -- 88
2019-04-10 06:00:00 8 11 Sudoeste 23 Sudoeste 0 -- -- 86
2019-04-10 05:00:00 8.2 12 Sudoeste 21 Sudoeste 0 -- -- 86
2019-04-10 04:00:00 8.8 14 Sudoeste 24 Sudoeste 0 -- -- 83
2019-04-10 03:00:00 9 15 Sudoeste 30 Oeste 0 -- -- 81
2019-04-10 02:00:00 9.2 18 Sudoeste 29 Sudoeste 0 -- -- 79
2019-04-10 01:00:00 8.8 12 Oeste 23 Oeste 0 -- -- 84
2019-04-10 00:00:00 9.3 14 Oeste 26 Oeste 0 -- -- 80
2019-04-09 23:00:00 9.9 16 Oeste 35 Oeste 0 -- -- 75
2019-04-09 22:00:00 10.9 17 Oeste 33 Oeste 0 -- -- 71
2019-04-09 21:00:00 12.2 16 Oeste 39 Oeste 0 -- -- 65
2019-04-09 20:00:00 13.4 19 Oeste 40 Oeste 0 -- -- 63
2019-04-09 19:00:00 13.8 27 Oeste 55 Oeste 0 -- -- 64
2019-04-09 18:00:00 15.1 23 Oeste 48 Noroeste 0 -- -- 54
2019-04-09 17:00:00 15.6 23 Oeste 48 Oeste 0 -- -- 52
2019-04-09 16:00:00 15.8 27 Oeste 44 Oeste 0 -- -- 49
2019-04-09 15:00:00 15 22 Oeste 43 Oeste 0 -- -- 55
2019-04-09 14:00:00 13.6 23 Oeste 40 Oeste 0 -- -- 65
2019-04-09 13:00:00 13.1 22 Oeste 43 Oeste 0 -- -- 69
2019-04-09 12:00:00 10.8 12 Oeste 40 Oeste 0.2 -- -- 78
2019-04-09 11:00:00 11.4 20 Sudoeste 34 Sudoeste 0 -- -- 79
2019-04-09 10:00:00 9.9 19 Sudoeste 32 Sudoeste 0 -- -- 89
2019-04-09 09:00:00 8.9 14 Sudoeste 28 Sudoeste 0.6 -- -- 93
2019-04-09 08:00:00 8.4 12 Sur 23 Sur 0 -- -- 95
2019-04-09 07:00:00 7.8 11 Sur 21 Sudoeste 0 -- -- 95
2019-04-09 06:00:00 8.1 13 Sur 24 Sur 0 -- -- 93
2019-04-09 05:00:00 7.8 13 Sudoeste 24 Sudoeste 0 -- -- 93
2019-04-09 04:00:00 8.2 17 Sudoeste 27 Sudoeste 0 -- -- 89
2019-04-09 03:00:00 8.2 15 Sudoeste 23 Sudoeste 0 -- -- 87
2019-04-09 02:00:00 8.5 13 Sudoeste 24 Sudoeste 0 -- -- 86
2019-04-09 01:00:00 9 15 Sudoeste 27 Sudoeste 0 -- -- 83
2019-04-09 00:00:00 9.6 15 Sudoeste 23 Sudoeste 0 -- -- 78
2019-04-08 23:00:00 10.3 16 Sudoeste 23 Sudoeste 0 -- -- 75
2019-04-08 22:00:00 10.2 10 Sudoeste 23 Oeste 0 -- -- 70
2019-04-08 21:00:00 11.4 12 Oeste 21 Sudoeste 0 -- -- 69
2019-04-08 20:00:00 10.8 12 Oeste 44 Oeste 0.2 -- -- 78
2019-04-08 19:00:00 12.3 32 Oeste 57 Oeste 0 -- -- 71
2019-04-08 18:00:00 15.2 18 Oeste 37 Oeste 0 -- -- 58
2019-04-08 17:00:00 15.2 18 Oeste 32 Oeste 0 -- -- 57
2019-04-08 16:00:00 16.2 15 Oeste 28 Oeste 0 -- -- 48
2019-04-08 15:00:00 16.6 16 Oeste 34 Noroeste 0 -- -- 40
2019-04-08 14:00:00 14.9 20 Oeste 35 Oeste 0 -- -- 50
2019-04-08 13:00:00 13.7 12 Oeste 29 Oeste 0 -- -- 55
2019-04-08 12:00:00 13.6 12 Oeste 29 Noroeste 0 -- -- 67
2019-04-08 11:00:00 13 10 Oeste 24 Sudoeste 0 -- -- 72
2019-04-08 10:00:00 11.2 14 Sudoeste 23 Oeste 0 -- -- 82
2019-04-08 09:00:00 10.3 13 Sudoeste 22 Oeste 0 -- -- 89
2019-04-08 08:00:00 10.4 6 Sudoeste 19 Sudoeste 0 -- -- 92
2019-04-08 07:00:00 10.9 10 Sudoeste 17 Sudoeste 0 -- -- 91
2019-04-08 06:00:00 11.3 9 Sudoeste 19 Sudoeste 0.2 -- -- 92
2019-04-08 05:00:00 11.2 15 Oeste 28 Sudoeste 1.8 -- -- 95
2019-04-08 04:00:00 11.5 11 Sudoeste 25 Sudoeste 0.2 -- -- 93
2019-04-08 03:00:00 11.6 9 Sur 24 Sur 1.2 -- -- 93
2019-04-08 02:00:00 11.9 12 Sudoeste 24 Sudoeste 0.6 -- -- 92
2019-04-08 01:00:00 12 8 Sudoeste 21 Sudoeste 0 -- -- 93
2019-04-08 00:00:00 12.1 9 Sudoeste 19 Sudoeste 0 -- -- 92
2019-04-07 23:00:00 12.1 10 Sur 18 Sudoeste 0 -- -- 92
2019-04-07 22:00:00 12.2 9 Sudoeste 17 Sudoeste 0 -- -- 90
2019-04-07 21:00:00 12.3 12 Sudoeste 25 Sudoeste 0.2 -- -- 91
2019-04-07 20:00:00 12.2 11 Sur 24 Sur 0.4 -- -- 93
2019-04-07 19:00:00 12 13 Sudoeste 33 Sur 1 -- -- 92
2019-04-07 18:00:00 12.5 17 Sur 34 Sur 0 -- -- 86
2019-04-07 17:00:00 13.4 17 Sudoeste 34 Sur 0 -- -- 79
2019-04-07 16:00:00 12.4 14 Sur 30 Sudoeste 0 -- -- 84
2019-04-07 15:00:00 11.7 11 Sur 22 Sudoeste 0 -- -- 84
2019-04-07 14:00:00 12.1 8 Sudoeste 17 Sudoeste 0 -- -- 78
2019-04-07 13:00:00 10.5 9 Sudoeste 21 Oeste 0 -- -- 86
2019-04-07 12:00:00 11.4 10 Sur 19 Sudoeste 0 -- -- 78
2019-04-07 11:00:00 10 9 Sur 17 Sudoeste 0 -- -- 84
2019-04-07 10:00:00 8.8 10 Sudoeste 21 Sudoeste 0 -- -- 87
2019-04-07 09:00:00 8.5 12 Sudoeste 25 Sudoeste 0 -- -- 87
2019-04-07 08:00:00 8.6 15 Sudoeste 27 Sudoeste 0 -- -- 81
2019-04-07 07:00:00 8.1 15 Sudoeste 28 Sudoeste 0 -- -- 85
2019-04-07 06:00:00 8.4 16 Sudoeste 29 Sudoeste 0 -- -- 83
2019-04-07 05:00:00 8.3 13 Sudoeste 32 Sudoeste 0 -- -- 84
2019-04-07 04:00:00 8.2 18 Sudoeste 34 Sudoeste 0 -- -- 84
2019-04-07 03:00:00 8.1 20 Sudoeste 39 Oeste 0 -- -- 84
2019-04-07 02:00:00 8.8 20 Oeste 33 Sudoeste 0 -- -- 81
2019-04-07 01:00:00 8.7 15 Sudoeste 35 Oeste 0 -- -- 78
2019-04-07 00:00:00 8.6 17 Sudoeste 27 Sudoeste 0 -- -- 77
2019-04-06 23:00:00 8.3 19 Sudoeste 31 Sudoeste 0 -- -- 79
2019-04-06 22:00:00 7.8 16 Sudoeste 29 Sudoeste 0 -- -- 83
2019-04-06 21:00:00 7.8 19 Oeste 42 Oeste 0.4 -- -- 83
2019-04-06 20:00:00 8.4 21 Oeste 42 Oeste 0.4 -- -- 81
2019-04-06 19:00:00 9.8 11 Oeste 25 Sudoeste 0 -- -- 80
2019-04-06 18:00:00 9.6 8 Oeste 21 Oeste 0.6 -- -- 86
2019-04-06 17:00:00 8.8 8 Noroeste 23 Noroeste 0.6 -- -- 84
2019-04-06 16:00:00 7.3 16 Oeste 59 Oeste 1.4 -- -- 88
2019-04-06 15:00:00 7.4 21 Noroeste 48 Oeste 0.2 -- -- 84
2019-04-06 14:00:00 7.7 26 Oeste 57 Noroeste 0.8 -- -- 79
2019-04-06 13:00:00 9.4 10 Oeste 33 Oeste 0.2 -- -- 83
2019-04-06 12:00:00 10.4 19 Oeste 33 Oeste 0 -- -- 72
2019-04-06 11:00:00 7.9 17 Sudoeste 29 Sudoeste 0.2 -- -- 83
2019-04-06 10:00:00 7.4 16 Sudoeste 34 Sudoeste 0.4 -- -- 87
2019-04-06 09:00:00 6.6 18 Sudoeste 44 Sudoeste 0.8 -- -- 87
2019-04-06 08:00:00 6.5 15 Sudoeste 27 Sur 0.2 -- -- 91
2019-04-06 07:00:00 6.5 12 Sudoeste 32 Sudoeste 0 -- -- 88
2019-04-06 06:00:00 6.8 17 Sudoeste 32 Sudoeste 0 -- -- 88
2019-04-06 05:00:00 6.5 18 Sudoeste 32 Sudoeste 0 -- -- 88
2019-04-06 04:00:00 6.5 17 Sudoeste 27 Sudoeste 0 -- -- 86
2019-04-06 03:00:00 6.5 15 Sudoeste 27 Sudoeste 0 -- -- 85
2019-04-06 02:00:00 6.6 14 Sudoeste 30 Sudoeste 0 -- -- 84
2019-04-06 01:00:00 6.3 15 Sudoeste 28 Sudoeste 0 -- -- 84
2019-04-06 00:00:00 6.9 20 Sudoeste 29 Sudoeste 0 -- -- 80
2019-04-05 23:00:00 7.2 16 Sudoeste 29 Sudoeste 0 -- -- 76
2019-04-05 22:00:00 7.2 13 Sudoeste 31 Oeste 0 -- -- 79
2019-04-05 21:00:00 7.8 23 Oeste 37 Oeste 0 -- -- 77
2019-04-05 20:00:00 8.9 20 Oeste 36 Oeste 0 -- -- 73
2019-04-05 19:00:00 9.4 19 Sudoeste 35 Sudoeste 0.2 -- -- 72
2019-04-05 18:00:00 8 18 Sudoeste 49 Oeste 0.2 -- -- 80
2019-04-05 17:00:00 11.6 26 Sudoeste 44 Sudoeste 0 -- -- 53
2019-04-05 16:00:00 11.9 21 Oeste 43 Oeste 0 -- -- 50
2019-04-05 15:00:00 10.6 19 Oeste 39 Oeste 0 -- -- 54
2019-04-05 14:00:00 10.1 22 Oeste 36 Oeste 0 -- -- 61
2019-04-05 13:00:00 8.4 22 Oeste 38 Oeste 0 -- -- 74
2019-04-05 12:00:00 7.7 19 Oeste 28 Oeste 0 -- -- 77
2019-04-05 11:00:00 5.3 9 Oeste 17 Oeste 0.2 -- -- 88
2019-04-05 10:00:00 3.8 10 Oeste 53 Oeste 1.8 -- -- 93
2019-04-05 09:00:00 6.7 10 Sudoeste 19 Sudoeste 0.4 -- -- 87
2019-04-05 08:00:00 6.6 12 Sudoeste 17 Sudoeste 0 -- -- 89
2019-04-05 07:00:00 6.9 10 Sudoeste 27 Oeste 0.8 -- -- 90
2019-04-05 06:00:00 8.1 10 Sudoeste 23 Sur 0 -- -- 90
2019-04-05 05:00:00 8.1 13 Sur 27 Sur 0 -- -- 92
2019-04-05 04:00:00 8 12 Sudoeste 28 Sudoeste 0.2 -- -- 92
2019-04-05 03:00:00 7.7 13 Sudoeste 39 Sur 0.2 -- -- 92
2019-04-05 02:00:00 7.6 21 Sur 42 Sur 0 -- -- 87
2019-04-05 01:00:00 7.7 10 Sur 27 Sur 0.2 -- -- 85
2019-04-05 00:00:00 7.9 8 Sudoeste 18 Oeste 0.2 -- -- 83
2019-04-04 23:00:00 7.9 4 Sudoeste 24 Oeste 0.4 -- -- 86
2019-04-04 22:00:00 9.9 15 Oeste 31 Oeste 0 -- -- 65
2019-04-04 21:00:00 12.1 15 Oeste 32 Oeste 0 -- -- 49
2019-04-04 20:00:00 13.2 19 Oeste 32 Oeste 0 -- -- 45
2019-04-04 19:00:00 14.7 17 Oeste 34 Oeste 0 -- -- 40
2019-04-04 18:00:00 16.5 17 Oeste 28 Oeste 0 -- -- 32
2019-04-04 17:00:00 17 13 Oeste 27 Noroeste 0 -- -- 27
2019-04-04 16:00:00 15.6 14 Oeste 25 Oeste 0 -- -- 26
2019-04-04 15:00:00 15.7 6 Oeste 20 Oeste 0 -- -- 28
2019-04-04 14:00:00 14.4 7 Norte 18 Nordeste 0 -- -- 33
2019-04-04 13:00:00 13.3 6 Noroeste 18 Noroeste 0 -- -- 39
2019-04-04 12:00:00 11.1 9 Nordeste 18 Nordeste 0 -- -- 44
2019-04-04 11:00:00 9.5 8 Noroeste 17 Noroeste 0 -- -- 50
2019-04-04 10:00:00 6.5 4 Oeste 16 Oeste 0 -- -- 61
2019-04-04 09:00:00 4.6 10 Oeste 17 Oeste 0 -- -- 64
2019-04-04 08:00:00 3.3 6 Oeste 17 Oeste 0 -- -- 66
2019-04-04 07:00:00 2.2 4 Oeste 6 Oeste 0 -- -- 71
2019-04-04 06:00:00 3.7 3 Oeste 14 Noroeste 0 -- -- 63
2019-04-04 05:00:00 4.4 3 Sudoeste 9 Noroeste 0 -- -- 61
2019-04-04 04:00:00 6 3 Sudoeste 13 Noroeste 0 -- -- 55
2019-04-04 03:00:00 6 4 Nordeste 18 Oeste 0 -- -- 56
2019-04-04 02:00:00 6.8 5 Noroeste 20 Oeste 0 -- -- 58
2019-04-04 01:00:00 7.3 4 Oeste 13 Oeste 0 -- -- 62
2019-04-04 00:00:00 7.7 5 Oeste 9 Oeste 0 -- -- 61
2019-04-03 23:00:00 8.1 3 Sudoeste 10 Oeste 0 -- -- 56
2019-04-03 22:00:00 8.8 3 Oeste 8 Oeste 0 -- -- 55
2019-04-03 21:00:00 11.9 2 Sur 19 Norte 0 -- -- 49
2019-04-03 20:00:00 16 12 Noroeste 33 Noroeste 0 -- -- 33
2019-04-03 19:00:00 17.1 14 Noroeste 33 Noroeste 0 -- -- 32
2019-04-03 18:00:00 17.6 17 Noroeste 41 Oeste 0 -- -- 29
2019-04-03 17:00:00 17.8 18 Noroeste 36 Noroeste 0 -- -- 32
2019-04-03 16:00:00 17.5 19 Noroeste 40 Noroeste 0 -- -- 31
2019-04-03 15:00:00 16.9 18 Noroeste 35 Norte 0 -- -- 34
2019-04-03 14:00:00 16 20 Noroeste 38 Oeste 0 -- -- 40
2019-04-03 13:00:00 14.6 12 Noroeste 24 Noroeste 0 -- -- 51
2019-04-03 12:00:00 13 9 Norte 21 Noroeste 0 -- -- 59
2019-04-03 11:00:00 10.8 10 Noroeste 19 Oeste 0 -- -- 70
2019-04-03 10:00:00 8.6 10 Oeste 18 Oeste 0 -- -- 77
2019-04-03 09:00:00 7.6 9 Sudoeste 17 Oeste 0 -- -- 78
2019-04-03 08:00:00 7 9 Sudoeste 22 Sudoeste 0 -- -- 78
2019-04-03 07:00:00 7.7 10 Sudoeste 19 Oeste 0 -- -- 75
2019-04-03 06:00:00 8.1 9 Sudoeste 14 Sudoeste 0 -- -- 75
2019-04-03 05:00:00 8.5 4 Oeste 20 Sudoeste 0 -- -- 76
2019-04-03 04:00:00 9.7 11 Sudoeste 20 Sudoeste 0 -- -- 73
2019-04-03 03:00:00 10.2 10 Sudoeste 18 Sudoeste 0 -- -- 73
2019-04-03 02:00:00 11.2 11 Sudoeste 21 Oeste 0 -- -- 72
2019-04-03 01:00:00 12.1 12 Sudoeste 19 Sudoeste 0 -- -- 73
2019-04-03 00:00:00 13.3 11 Sudoeste 20 Oeste 0 -- -- 68
2019-04-02 23:00:00 14.6 12 Sudoeste 27 Sudoeste 0 -- -- 57
2019-04-02 22:00:00 15.6 14 Sudoeste 22 Sudoeste 0 -- -- 58
2019-04-02 21:00:00 16.8 11 Sudoeste 30 Oeste 0 -- -- 53
2019-04-02 20:00:00 19.2 16 Oeste 31 Oeste 0 -- -- 44
2019-04-02 19:00:00 20.5 18 Oeste 33 Oeste 0 -- -- 42
2019-04-02 18:00:00 21.4 11 Oeste 28 Oeste 0 -- -- 39
2019-04-02 17:00:00 21.7 9 Noroeste 24 Oeste 0 -- -- 39
2019-04-02 16:00:00 20.4 10 Noroeste 28 Oeste 0 -- -- 41
2019-04-02 15:00:00 20.6 14 Oeste 30 Oeste 0 -- -- 39
2019-04-02 14:00:00 19.6 10 Oeste 23 Oeste 0 -- -- 46
2019-04-02 13:00:00 18.2 5 Noroeste 28 Sudoeste 0 -- -- 47
2019-04-02 12:00:00 16.1 6 Oeste 15 Oeste 0 -- -- 62
2019-04-02 11:00:00 12.7 4 Nordeste 7 Nordeste 0 -- -- 81
2019-04-02 10:00:00 8.3 3 Nordeste 6 Nordeste 0 -- -- 91
2019-04-02 09:00:00 6.9 0 Calma 5 Norte 0 -- -- 94
2019-04-02 08:00:00 6 2 Noroeste 13 Sudoeste 0 -- -- 94
2019-04-02 07:00:00 7.1 3 Noroeste 11 Sudoeste 0 -- -- 91
2019-04-02 06:00:00 6.9 0 Calma 3 Sudeste 0 -- -- 90
2019-04-02 05:00:00 8.3 0 Calma 4 Oeste 0 -- -- 89
2019-04-02 04:00:00 9 2 Sudoeste 10 Sudoeste 0 -- -- 87
2019-04-02 03:00:00 10.9 6 Sudoeste 14 Sudoeste 0 -- -- 82
2019-04-02 02:00:00 11.6 10 Sudoeste 17 Sudoeste 0 -- -- 79
2019-04-02 01:00:00 12.1 12 Sudoeste 17 Sudoeste 0 -- -- 77
2019-04-02 00:00:00 12.1 6 Oeste 22 Sur 0 -- -- 77
2019-04-01 23:00:00 12.7 14 Sur 25 Sur 0 -- -- 76
2019-04-01 22:00:00 13.3 17 Sur 25 Sur 0 -- -- 71
2019-04-01 21:00:00 13.9 14 Sur 22 Sur 0 -- -- 71
2019-04-01 20:00:00 15.4 9 Sudoeste 16 Oeste 0 -- -- 68
2019-04-01 19:00:00 16.9 4 Sudoeste 10 Sur 0 -- -- 62
2019-04-01 18:00:00 17 5 Nordeste 15 Este 0 -- -- 59
2019-04-01 17:00:00 17.1 7 Este 20 Este 0 -- -- 59
2019-04-01 16:00:00 17.2 9 Nordeste 18 Este 0 -- -- 61
2019-04-01 15:00:00 15.5 6 Nordeste 14 Nordeste 0 -- -- 75
2019-04-01 14:00:00 14.3 6 Nordeste 14 Este 0 -- -- 85
2019-04-01 13:00:00 13.5 6 Nordeste 13 Nordeste 0.2 -- -- 88
2019-04-01 12:00:00 11.8 4 Este 10 Este 1.4 -- -- 93
2019-04-01 11:00:00 11.3 3 Nordeste 5 Norte 1 -- -- 93
2019-04-01 10:00:00 11 0 Calma 4 Oeste 1 -- -- 92
2019-04-01 09:00:00 10.8 3 Oeste 10 Este 0.2 -- -- 89
2019-04-01 08:00:00 10.8 6 Este 11 Este 0 -- -- 88
2019-04-01 07:00:00 10.7 3 Noroeste 6 Este 0 -- -- 87
2019-04-01 06:00:00 10.9 2 Oeste 15 Sudeste 0 -- -- 86
2019-04-01 05:00:00 11.8 6 Este 16 Sudeste 0 -- -- 82
2019-04-01 04:00:00 9.9 3 Sudeste 7 Noroeste 0 -- -- 91
2019-04-01 03:00:00 10.7 4 Este 8 Este 0 -- -- 87
2019-04-01 02:00:00 10.4 3 Este 5 Este 0 -- -- 87
2019-04-01 01:00:00 11.8 5 Sudeste 8 Sudeste 0 -- -- 84
2019-04-01 00:00:00 12.7 0 Calma 25 Sudeste 0 -- -- 80
2019-03-31 23:00:00 13.1 17 Sur 28 Sur 0 -- -- 79
2019-03-31 22:00:00 14.7 18 Sur 32 Sur 0 -- -- 67
2019-03-31 21:00:00 16.1 10 Sudeste 17 Este 0 -- -- 56
2019-03-31 20:00:00 18.7 10 Este 22 Nordeste 0 -- -- 51
2019-03-31 19:00:00 19.9 6 Nordeste 22 Nordeste 0 -- -- 44
2019-03-31 18:00:00 20 4 Nordeste 12 Este 0 -- -- 47
2019-03-31 17:00:00 17.5 3 Nordeste 16 Sudeste 0.2 -- -- 55
2019-03-31 16:00:00 14.2 14 Sur 32 Sudeste 1 -- -- 73
2019-03-31 15:00:00 17.1 12 Sudoeste 24 Oeste 0 -- -- 57
2019-03-31 14:00:00 19 10 Oeste 17 Oeste 0 -- -- 49
2019-03-31 13:00:00 17.3 8 Este 17 Este 0 -- -- 50
2019-03-31 12:00:00 15.8 8 Nordeste 16 Nordeste 0 -- -- 53
2019-03-31 11:00:00 13 5 Este 13 Este 0 -- -- 60
2019-03-31 10:00:00 12.2 8 Este 15 Este 0 -- -- 61
2019-03-31 09:00:00 9.2 5 Este 10 Este 0 -- -- 77
2019-03-31 08:00:00 8.4 0 Calma 6 Sur 0 -- -- 77
2019-03-31 07:00:00 9.2 3 Sudeste 8 Sur 0 -- -- 75
2019-03-31 06:00:00 11.3 2 Sudoeste 8 Noroeste 0 -- -- 72
2019-03-31 05:00:00 12.5 3 Norte 11 Este 0 -- -- 69
2019-03-31 03:00:00 12.4 3 Sudoeste 7 Sur 0 -- -- 67
2019-03-31 01:00:00 13.7 3 Noroeste 19 Sur 0 -- -- 59
2019-03-31 00:00:00 14.8 10 Sur 23 Sur 0 -- -- 56
2019-03-30 23:00:00 15.4 12 Sur 26 Sur 0 -- -- 40
2019-03-30 22:00:00 15.2 8 Este 16 Este 0 -- -- 40
2019-03-30 21:00:00 15.6 6 Este 13 Este 0 -- -- 41
2019-03-30 20:00:00 16.7 5 Sudeste 11 Nordeste 0 -- -- 39
2019-03-30 19:00:00 19.6 8 Nordeste 19 Nordeste 0 -- -- 32
2019-03-30 18:00:00 20.8 6 Nordeste 19 Nordeste 0 -- -- 30
2019-03-30 17:00:00 21.7 10 Nordeste 24 Nordeste 0 -- -- 31
2019-03-30 16:00:00 21.3 9 Nordeste 29 Nordeste 0 -- -- 31
2019-03-30 15:00:00 20.7 12 Nordeste 30 Norte 0 -- -- 33
2019-03-30 14:00:00 20.1 11 Este 24 Nordeste 0 -- -- 36
2019-03-30 13:00:00 18.7 10 Nordeste 24 Nordeste 0 -- -- 39
2019-03-30 12:00:00 17.5 13 Este 23 Este 0 -- -- 42
2019-03-30 11:00:00 16 10 Este 21 Este 0 -- -- 43
2019-03-30 10:00:00 13.6 7 Nordeste 23 Nordeste 0 -- -- 46
2019-03-30 09:00:00 10.8 13 Este 24 Este 0 -- -- 52
2019-03-30 08:00:00 7.9 8 Este 14 Este 0 -- -- 58
2019-03-30 07:00:00 5.5 0 Calma 5 Este 0 -- -- 66
2019-03-30 06:00:00 6 0 Calma 4 Nordeste 0 -- -- 66
2019-03-30 05:00:00 5.5 0 Calma 5 Sur 0 -- -- 62
2019-03-30 04:00:00 5.4 0 Calma 4 Sur 0 -- -- 60
2019-03-30 03:00:00 4.9 2 Sudoeste 6 Noroeste 0 -- -- 60
2019-03-30 02:00:00 5.1 0 Calma 2 Nordeste 0 -- -- 60
2019-03-30 01:00:00 6.7 0 Calma 3 Nordeste 0 -- -- 53
2019-03-30 00:00:00 10.3 2 Norte 13 Sudeste 0 -- -- 41
2019-03-29 23:00:00 9.2 0 Calma 4 Sudeste 0 -- -- 42
2019-03-29 22:00:00 11 0 Calma 10 Sudeste 0 -- -- 37
2019-03-29 21:00:00 13.2 8 Sudeste 13 Sudeste 0 -- -- 33
2019-03-29 20:00:00 15.3 10 Sudeste 13 Sudeste 0 -- -- 28
2019-03-29 19:00:00 19.3 6 Este 18 Este 0 -- -- 25
2019-03-29 18:00:00 20 9 Nordeste 23 Este 0 -- -- 23
2019-03-29 17:00:00 20.4 7 Nordeste 27 Este 0 -- -- 23
2019-03-29 16:00:00 20.6 9 Este 26 Este 0 -- -- 22
2019-03-29 15:00:00 19.9 10 Este 26 Este 0 -- -- 24
2019-03-29 14:00:00 19.1 14 Este 27 Este 0 -- -- 25
2019-03-29 13:00:00 18.7 9 Este 22 Este 0 -- -- 25
2019-03-29 12:00:00 17.9 10 Este 22 Este 0 -- -- 28
2019-03-29 11:00:00 16.4 9 Este 21 Este 0 -- -- 35
2019-03-29 10:00:00 13.9 15 Este 25 Este 0 -- -- 38
2019-03-29 09:00:00 9.5 4 Norte 9 Nordeste 0 -- -- 58
2019-03-29 08:00:00 5.8 2 Noroeste 8 Este 0 -- -- 63
2019-03-29 07:00:00 4 5 Este 10 Sudeste 0 -- -- 68
2019-03-29 06:00:00 4.1 2 Noroeste 17 Norte 0 -- -- 64
2019-03-29 05:00:00 7.5 6 Nordeste 32 Sudeste 0 -- -- 53
2019-03-29 04:00:00 5.5 4 Norte 15 Sudeste 0 -- -- 58
2019-03-29 03:00:00 4.7 3 Noroeste 6 Este 0 -- -- 62
2019-03-29 02:00:00 6.4 4 Oeste 6 Oeste 0 -- -- 56
2019-03-29 01:00:00 9.1 0 Calma 9 Este 0 -- -- 47
2019-03-29 00:00:00 11.5 7 Sudeste 10 Este 0 -- -- 38
2019-03-28 23:00:00 10 0 Calma 8 Sur 0 -- -- 45
2019-03-28 22:00:00 12.4 3 Sudeste 10 Sudeste 0 -- -- 37
2019-03-28 21:00:00 13.5 6 Sudeste 14 Sudeste 0 -- -- 36
2019-03-28 20:00:00 16.9 10 Sudeste 14 Sudeste 0 -- -- 27
2019-03-28 19:00:00 20.5 7 Sudeste 22 Este 0 -- -- 22
2019-03-28 18:00:00 21.4 12 Este 31 Este 0 -- -- 20
2019-03-28 17:00:00 21.8 13 Este 33 Sudeste 0 -- -- 20
2019-03-28 16:00:00 21.8 17 Este 38 Este 0 -- -- 21
2019-03-28 15:00:00 21.9 18 Este 33 Este 0 -- -- 20
2019-03-28 14:00:00 20.9 19 Este 47 Sudeste 0 -- -- 20
2019-03-28 13:00:00 20.1 11 Nordeste 24 Este 0 -- -- 26
2019-03-28 12:00:00 18.5 7 Nordeste 20 Este 0 -- -- 30
2019-03-28 11:00:00 15.5 10 Nordeste 22 Este 0 -- -- 40
2019-03-28 10:00:00 12.1 6 Nordeste 9 Nordeste 0 -- -- 48
2019-03-28 09:00:00 7.1 0 Calma 4 Norte 0 -- -- 60
2019-03-28 08:00:00 3.2 0 Calma 3 Oeste 0 -- -- 73
2019-03-28 07:00:00 2.8 2 Este 6 Noroeste 0 -- -- 69
2019-03-28 06:00:00 3.1 0 Calma 5 Sur 0 -- -- 69
2019-03-28 05:00:00 4.9 0 Calma 5 Nordeste 0 -- -- 63
2019-03-28 04:00:00 5.3 5 Sudoeste 13 Este 0 -- -- 59
2019-03-28 03:00:00 5.1 0 Calma 5 Sur 0 -- -- 62
2019-03-28 02:00:00 6 2 Sudeste 4 Sur 0 -- -- 59
2019-03-28 01:00:00 7.6 0 Calma 6 Este 0 -- -- 55
2019-03-28 00:00:00 11.6 0 Calma 13 Este 0 -- -- 43
2019-03-27 23:00:00 13.4 9 Sudeste 19 Este 0 -- -- 38
2019-03-27 22:00:00 11.5 8 Sudeste 13 Sudeste 0 -- -- 45
2019-03-27 21:00:00 13.5 9 Sudeste 11 Sudeste 0 -- -- 38
2019-03-27 20:00:00 14.4 4 Sudeste 14 Nordeste 0 -- -- 40
2019-03-27 19:00:00 19.1 8 Nordeste 24 Nordeste 0 -- -- 27
2019-03-27 18:00:00 20.2 14 Nordeste 28 Nordeste 0 -- -- 28
2019-03-27 17:00:00 20.8 12 Nordeste 25 Este 0 -- -- 26
2019-03-27 16:00:00 21 12 Nordeste 29 Este 0 -- -- 25
2019-03-27 15:00:00 20.2 12 Este 27 Nordeste 0 -- -- 27
2019-03-27 14:00:00 20.1 11 Este 32 Sudeste 0 -- -- 27
2019-03-27 13:00:00 18.9 22 Este 35 Este 0 -- -- 27
2019-03-27 12:00:00 17.7 13 Este 32 Este 0 -- -- 33
2019-03-27 11:00:00 15.6 19 Este 33 Este 0 -- -- 35
2019-03-27 10:00:00 13.2 17 Este 32 Este 0 -- -- 46
2019-03-27 09:00:00 11 16 Este 30 Este 0 -- -- 53
2019-03-27 08:00:00 9 12 Este 21 Este 0 -- -- 58
2019-03-27 07:00:00 8.9 6 Este 20 Este 0 -- -- 56
2019-03-27 06:00:00 10 11 Este 21 Sudeste 0 -- -- 51
2019-03-27 05:00:00 9.9 7 Este 23 Este 0 -- -- 54
2019-03-27 04:00:00 8.6 2 Este 12 Este 0 -- -- 59
2019-03-27 03:00:00 10.3 8 Este 15 Este 0 -- -- 54
2019-03-27 02:00:00 10.9 9 Este 19 Sudeste 0 -- -- 52
2019-03-27 01:00:00 13.5 11 Este 18 Este 0 -- -- 44
2019-03-27 00:00:00 12.5 10 Este 17 Sudeste 0 -- -- 47